Time;durP1;ratioP1;P1;durP2;ratioP2;P2;SDS_P1;SDS_P2;PMS_P1;PMS_P2;Temp;Humidity;BMP_temperature;BMP_pressure;BME280_temperature;BME280_humidity;BME280_pressure;Samples;Min_cycle;Max_cycle;Signal;HPM_P1;HPM_P2
2022/01/30 00:01:44;;;;;;;12.47;8.57;;;;;;;;;;5125026;27;20200;-82
2022/01/30 00:04:12;;;;;;;10.97;8.17;;;;;;;;;;5117667;27;20272;-82
2022/01/30 00:06:40;;;;;;;13.23;8.83;;;;;;;;;;5125423;27;20600;-82
2022/01/30 00:09:15;;;;;;;10.77;8.50;;;;;;;;;;5132267;27;20219;-82
2022/01/30 00:11:45;;;;;;;13.63;8.50;;;;;;;;;;5136297;27;20239;-82
2022/01/30 00:14:16;;;;;;;12.57;8.10;;;;;;;;;;5112485;27;20220;-81
2022/01/30 00:16:43;;;;;;;12.67;8.17;;;;;;;;;;5114848;28;20618;-82
2022/01/30 00:19:19;;;;;;;10.77;7.57;;;;;;;;;;5115673;27;20205;-82
2022/01/30 00:21:50;;;;;;;14.83;8.57;;;;;;;;;;5117747;27;20279;-82
2022/01/30 00:24:25;;;;;;;13.40;8.80;;;;;;;;;;5133300;27;20253;-81
2022/01/30 00:26:52;;;;;;;11.53;8.27;;;;;;;;;;5124262;27;20687;-82
2022/01/30 00:29:19;;;;;;;13.33;8.33;;;;;;;;;;5115866;28;20205;-81
2022/01/30 00:31:46;;;;;;;9.73;7.87;;;;;;;;;;5115239;28;20236;-82
2022/01/30 00:34:14;;;;;;;12.90;7.80;;;;;;;;;;5115643;27;20258;-82
2022/01/30 00:36:41;;;;;;;10.83;7.60;;;;;;;;;;5125799;27;20906;-82
2022/01/30 00:39:08;;;;;;;10.37;7.43;;;;;;;;;;5135240;27;20303;-82
2022/01/30 00:41:37;;;;;;;11.87;7.57;;;;;;;;;;5134873;27;20283;-82
2022/01/30 00:44:04;;;;;;;12.90;7.10;;;;;;;;;;5113125;28;20327;-82
2022/01/30 00:46:31;;;;;;;12.13;7.33;;;;;;;;;;5130147;27;20304;-81
2022/01/30 00:48:59;;;;;;;10.27;7.17;;;;;;;;;;5121590;27;20255;-81
2022/01/30 00:51:26;;;;;;;9.17;7.70;;;;;;;;;;5114934;28;20246;-82
2022/01/30 00:53:53;;;;;;;10.97;6.47;;;;;;;;;;5114408;27;20315;-81
2022/01/30 00:56:21;;;;;;;11.40;6.67;;;;;;;;;;5094778;28;20243;-81
2022/01/30 00:58:49;;;;;;;10.60;6.87;;;;;;;;;;5094467;28;20241;-82
2022/01/30 01:01:16;;;;;;;12.97;6.83;;;;;;;;;;5107173;27;20228;-81
2022/01/30 01:03:43;;;;;;;8.80;6.40;;;;;;;;;;5125586;27;20262;-81
2022/01/30 01:06:11;;;;;;;9.73;5.93;;;;;;;;;;5134219;27;20246;-82
2022/01/30 01:08:49;;;;;;;10.27;5.63;;;;;;;;;;5133327;27;20254;-81
2022/01/30 01:11:41;;;;;;;7.90;6.33;;;;;;;;;;5124014;27;20570;-82
2022/01/30 01:25:05;;;;;;;8.37;5.37;;;;;;;;;;5125797;27;20257;-82
2022/01/30 01:27:34;;;;;;;8.37;5.77;;;;;;;;;;5114615;28;20329;-81
2022/01/30 01:30:02;;;;;;;8.40;5.73;;;;;;;;;;5114289;27;20251;-81
2022/01/30 01:32:29;;;;;;;7.37;5.70;;;;;;;;;;5126607;27;20740;-81
2022/01/30 01:34:57;;;;;;;8.00;5.03;;;;;;;;;;5127185;27;20287;-81
2022/01/30 01:37:24;;;;;;;6.80;5.23;;;;;;;;;;5113804;28;20247;-81
2022/01/30 01:39:51;;;;;;;7.27;5.93;;;;;;;;;;5103758;27;20281;-81
2022/01/30 01:42:18;;;;;;;7.10;5.37;;;;;;;;;;5130608;27;20296;-81
2022/01/30 01:44:49;;;;;;;6.27;4.90;;;;;;;;;;5135003;27;20282;-81
2022/01/30 01:47:21;;;;;;;6.40;4.80;;;;;;;;;;5122195;27;20282;-81
2022/01/30 01:49:50;;;;;;;6.20;5.07;;;;;;;;;;5113778;27;20200;-81
2022/01/30 01:52:24;;;;;;;6.63;5.37;;;;;;;;;;5116821;27;20314;-81
2022/01/30 01:54:53;;;;;;;6.43;4.83;;;;;;;;;;5127951;27;20236;-82
2022/01/30 01:57:20;;;;;;;7.63;5.43;;;;;;;;;;5113673;28;20207;-82
2022/01/30 01:59:48;;;;;;;6.93;5.37;;;;;;;;;;5113330;28;20231;-81
2022/01/30 02:02:15;;;;;;;7.17;5.60;;;;;;;;;;5127680;27;20289;-81
2022/01/30 02:04:46;;;;;;;7.93;5.67;;;;;;;;;;5127786;27;20285;-81
2022/01/30 02:10:16;;;;;;;7.27;5.47;;;;;;;;;;5087093;28;20196;-82
2022/01/30 02:12:49;;;;;;;9.70;5.70;;;;;;;;;;5109403;28;20279;-81
2022/01/30 02:15:42;;;;;;;6.57;5.30;;;;;;;;;;5103533;28;20200;-82
2022/01/30 02:24:01;;;;;;;7.23;5.20;;;;;;;;;;5090403;28;20331;-81
2022/01/30 02:26:35;;;;;;;7.23;5.43;;;;;;;;;;5090294;28;20224;-82
2022/01/30 02:29:02;;;;;;;6.13;5.00;;;;;;;;;;5097870;28;20259;-82
2022/01/30 02:31:34;;;;;;;6.90;5.13;;;;;;;;;;5091432;28;20678;-81
2022/01/30 02:34:02;;;;;;;8.00;5.43;;;;;;;;;;5107220;28;20201;-82
2022/01/30 02:36:29;;;;;;;7.60;5.40;;;;;;;;;;5098032;28;20300;-82
2022/01/30 02:38:59;;;;;;;7.40;5.60;;;;;;;;;;5100231;28;20307;-82
2022/01/30 02:41:27;;;;;;;6.37;5.20;;;;;;;;;;5095629;28;20209;-82
2022/01/30 02:44:08;;;;;;;7.60;5.80;;;;;;;;;;5114985;27;20222;-82
2022/01/30 02:46:40;;;;;;;9.13;5.80;;;;;;;;;;5131816;27;20208;-82
2022/01/30 02:49:27;;;;;;;7.90;5.63;;;;;;;;;;5122540;27;20567;-82
2022/01/30 02:51:58;;;;;;;6.80;5.40;;;;;;;;;;5130676;27;20188;-82
2022/01/30 02:54:27;;;;;;;6.30;5.23;;;;;;;;;;5117103;27;20279;-82
2022/01/30 02:56:54;;;;;;;6.83;5.17;;;;;;;;;;5124220;27;20218;-82
2022/01/30 02:59:22;;;;;;;8.43;5.20;;;;;;;;;;5124931;27;20271;-83
2022/01/30 03:01:50;;;;;;;6.00;4.97;;;;;;;;;;5120586;27;20734;-82
2022/01/30 03:04:18;;;;;;;8.63;5.00;;;;;;;;;;5130255;27;21748;-82
2022/01/30 03:06:46;;;;;;;5.70;4.80;;;;;;;;;;5132877;27;20582;-82
2022/01/30 03:09:13;;;;;;;6.67;4.97;;;;;;;;;;5122691;27;20205;-82
2022/01/30 03:11:42;;;;;;;5.80;4.83;;;;;;;;;;5125789;27;20679;-82
2022/01/30 03:14:09;;;;;;;7.87;4.90;;;;;;;;;;5115419;27;20283;-82
2022/01/30 03:16:36;;;;;;;6.87;5.40;;;;;;;;;;5124911;27;20271;-82
2022/01/30 03:19:03;;;;;;;8.17;5.13;;;;;;;;;;5118591;27;20258;-82
2022/01/30 03:21:30;;;;;;;8.37;5.73;;;;;;;;;;5112317;28;20190;-82
2022/01/30 03:23:58;;;;;;;7.20;4.87;;;;;;;;;;5113727;27;20277;-82
2022/01/30 03:26:25;;;;;;;7.63;5.37;;;;;;;;;;5112049;28;20288;-82
2022/01/30 03:29:02;;;;;;;9.20;5.90;;;;;;;;;;5112387;28;20253;-82
2022/01/30 03:31:29;;;;;;;9.20;5.70;;;;;;;;;;5112058;28;20279;-82
2022/01/30 03:33:56;;;;;;;7.03;5.50;;;;;;;;;;5111984;28;20234;-82
2022/01/30 03:36:24;;;;;;;6.40;4.97;;;;;;;;;;5111439;28;20700;-82
2022/01/30 03:38:51;;;;;;;8.70;5.20;;;;;;;;;;5122574;28;20286;-82
2022/01/30 03:41:18;;;;;;;7.57;4.70;;;;;;;;;;5133293;28;20234;-82
2022/01/30 03:43:45;;;;;;;6.57;4.57;;;;;;;;;;5124356;27;20664;-82
2022/01/30 03:46:14;;;;;;;6.73;4.73;;;;;;;;;;5125143;28;20222;-82
2022/01/30 03:48:41;;;;;;;9.90;5.50;;;;;;;;;;5117184;28;20259;-82
2022/01/30 03:51:08;;;;;;;7.67;5.30;;;;;;;;;;5131049;28;20635;-82
2022/01/30 03:53:36;;;;;;;7.67;5.53;;;;;;;;;;5120861;28;20312;-82
2022/01/30 03:56:03;;;;;;;6.10;5.10;;;;;;;;;;5119580;28;20609;-82
2022/01/30 03:58:31;;;;;;;9.10;5.07;;;;;;;;;;5129436;28;20751;-82
2022/01/30 04:00:58;;;;;;;5.80;4.60;;;;;;;;;;5129000;28;20617;-83
2022/01/30 04:03:27;;;;;;;5.60;4.73;;;;;;;;;;5111686;28;20283;-82
2022/01/30 04:05:54;;;;;;;7.17;4.23;;;;;;;;;;5111595;28;20236;-82
2022/01/30 04:08:21;;;;;;;6.17;4.47;;;;;;;;;;5111738;28;20277;-82
2022/01/30 04:10:49;;;;;;;7.37;4.57;;;;;;;;;;5111632;28;20582;-83
2022/01/30 04:13:16;;;;;;;7.80;4.47;;;;;;;;;;5112015;28;20281;-82
2022/01/30 04:15:43;;;;;;;8.10;4.23;;;;;;;;;;5112467;28;20229;-83
2022/01/30 04:18:11;;;;;;;7.50;4.80;;;;;;;;;;5121102;28;20245;-82
2022/01/30 04:20:40;;;;;;;5.87;4.53;;;;;;;;;;5114999;28;20234;-82
2022/01/30 04:23:07;;;;;;;6.40;4.43;;;;;;;;;;5116248;28;20626;-82
2022/01/30 04:25:34;;;;;;;6.93;4.60;;;;;;;;;;5121304;28;20233;-83
2022/01/30 04:28:02;;;;;;;6.20;4.47;;;;;;;;;;5131889;28;20279;-82
2022/01/30 04:30:30;;;;;;;5.93;4.67;;;;;;;;;;5132433;28;20667;-82
2022/01/30 04:32:58;;;;;;;7.03;4.90;;;;;;;;;;5115332;28;20224;-83
2022/01/30 04:35:28;;;;;;;9.53;5.50;;;;;;;;;;5123461;28;20204;-82
2022/01/30 04:38:09;;;;;;;7.07;5.20;;;;;;;;;;5131136;28;20206;-82
2022/01/30 04:57:24;;;;;;;8.27;5.97;;;;;;;;;;5050631;28;20210;-83
2022/01/30 05:00:06;;;;;;;9.00;6.87;;;;;;;;;;5031585;28;20215;-83
2022/01/30 05:02:52;;;;;;;12.23;6.40;;;;;;;;;;5032022;28;20660;-83
2022/01/30 05:08:04;;;;;;;8.53;6.23;;;;;;;;;;5032035;28;20619;-82
2022/01/30 05:10:33;;;;;;;8.77;6.20;;;;;;;;;;5031942;28;20254;-82
2022/01/30 05:13:02;;;;;;;8.20;6.43;;;;;;;;;;5031731;28;20192;-82
2022/01/30 05:15:30;;;;;;;8.40;5.80;;;;;;;;;;5031502;28;20606;-82
2022/01/30 05:17:58;;;;;;;8.60;6.03;;;;;;;;;;5032263;28;20207;-83
2022/01/30 05:20:25;;;;;;;8.67;6.23;;;;;;;;;;5030957;28;20298;-82
2022/01/30 05:22:52;;;;;;;7.23;5.67;;;;;;;;;;5020529;28;20230;-82
2022/01/30 05:25:20;;;;;;;9.13;6.13;;;;;;;;;;5016120;28;20251;-83
2022/01/30 05:27:49;;;;;;;8.50;6.23;;;;;;;;;;5031235;28;20281;-82
2022/01/30 05:30:16;;;;;;;9.03;6.43;;;;;;;;;;5031299;28;20702;-82
2022/01/30 05:32:44;;;;;;;9.43;6.30;;;;;;;;;;5028923;28;20269;-82
2022/01/30 05:35:11;;;;;;;8.43;6.43;;;;;;;;;;5077813;28;20204;-82
2022/01/30 05:37:39;;;;;;;7.63;5.90;;;;;;;;;;5093560;28;20278;-82
2022/01/30 05:40:07;;;;;;;7.93;6.23;;;;;;;;;;5107800;28;20212;-82
2022/01/30 05:42:36;;;;;;;11.13;6.30;;;;;;;;;;5106437;28;20223;-82
2022/01/30 05:45:13;;;;;;;8.33;6.13;;;;;;;;;;5093474;28;20695;-82
2022/01/30 05:47:45;;;;;;;10.57;5.97;;;;;;;;;;5073332;28;20201;-83
2022/01/30 05:50:13;;;;;;;6.70;4.47;;;;;;;;;;5093624;28;20202;-82
2022/01/30 05:52:40;;;;;;;7.90;4.80;;;;;;;;;;5093248;28;20690;-82
2022/01/30 05:55:08;;;;;;;5.70;4.70;;;;;;;;;;5108252;27;20310;-82
2022/01/30 05:57:35;;;;;;;7.60;4.50;;;;;;;;;;5114692;27;20272;-82
2022/01/30 06:00:02;;;;;;;7.27;4.63;;;;;;;;;;5113496;27;20231;-82
2022/01/30 06:02:31;;;;;;;7.30;4.50;;;;;;;;;;5128604;27;20282;-83
2022/01/30 06:04:58;;;;;;;9.13;5.23;;;;;;;;;;5126963;27;20223;-83
2022/01/30 06:07:29;;;;;;;12.30;5.10;;;;;;;;;;5122685;27;20215;-82
2022/01/30 06:09:56;;;;;;;9.03;5.00;;;;;;;;;;5113391;28;20219;-82
2022/01/30 06:12:23;;;;;;;11.33;4.63;;;;;;;;;;5131308;27;20727;-82
2022/01/30 06:14:51;;;;;;;12.03;4.57;;;;;;;;;;5125474;27;20230;-82
2022/01/30 06:17:18;;;;;;;13.43;4.50;;;;;;;;;;5114277;27;20200;-82
2022/01/30 06:19:47;;;;;;;10.87;4.53;;;;;;;;;;5108477;27;20225;-82
2022/01/30 06:22:14;;;;;;;13.70;4.90;;;;;;;;;;5113126;27;20855;-82
2022/01/30 06:24:41;;;;;;;10.67;4.60;;;;;;;;;;5113314;27;20255;-82
2022/01/30 06:27:09;;;;;;;11.90;4.70;;;;;;;;;;5113313;28;20328;-82
2022/01/30 06:29:36;;;;;;;11.93;4.90;;;;;;;;;;5112714;28;20287;-82
2022/01/30 06:32:04;;;;;;;14.87;5.17;;;;;;;;;;5117797;27;20282;-82
2022/01/30 06:34:32;;;;;;;16.40;5.60;;;;;;;;;;5112632;28;20225;-82
2022/01/30 06:37:00;;;;;;;18.87;5.37;;;;;;;;;;5122589;27;20238;-82
2022/01/30 06:39:28;;;;;;;16.67;4.90;;;;;;;;;;5130968;27;20733;-82
2022/01/30 06:41:55;;;;;;;18.63;4.73;;;;;;;;;;5130364;27;20275;-82
2022/01/30 06:44:22;;;;;;;13.57;4.33;;;;;;;;;;5119094;27;20305;-83
2022/01/30 06:46:50;;;;;;;16.10;4.80;;;;;;;;;;5114858;27;20343;-82
2022/01/30 06:49:17;;;;;;;12.80;4.63;;;;;;;;;;5122305;27;20234;-82
2022/01/30 06:51:44;;;;;;;15.90;4.73;;;;;;;;;;5128845;27;20303;-82
2022/01/30 06:54:13;;;;;;;16.37;5.27;;;;;;;;;;5106869;27;20268;-82
2022/01/30 06:56:40;;;;;;;17.33;4.73;;;;;;;;;;5111306;28;20281;-82
2022/01/30 06:59:07;;;;;;;14.90;4.77;;;;;;;;;;5112390;28;20233;-83
2022/01/30 07:01:34;;;;;;;16.57;5.23;;;;;;;;;;5110789;28;20232;-82
2022/01/30 07:04:01;;;;;;;15.57;5.33;;;;;;;;;;5096171;28;20218;-82
2022/01/30 07:06:29;;;;;;;17.73;5.40;;;;;;;;;;5112008;28;20693;-82
2022/01/30 07:08:56;;;;;;;20.53;6.03;;;;;;;;;;5111859;28;20222;-82
2022/01/30 07:11:25;;;;;;;21.37;6.37;;;;;;;;;;5112254;28;20229;-82
2022/01/30 07:13:52;;;;;;;16.17;5.73;;;;;;;;;;5102366;28;20245;-83
2022/01/30 07:16:19;;;;;;;14.43;5.53;;;;;;;;;;5096778;28;20305;-82
2022/01/30 07:18:46;;;;;;;18.43;5.70;;;;;;;;;;5111274;28;20283;-83
2022/01/30 07:21:14;;;;;;;17.77;6.17;;;;;;;;;;5111830;28;20211;-82
2022/01/30 07:23:41;;;;;;;19.00;5.30;;;;;;;;;;5110978;28;20712;-82
2022/01/30 07:26:08;;;;;;;14.90;5.07;;;;;;;;;;5094077;28;20594;-83
2022/01/30 07:28:37;;;;;;;16.63;5.27;;;;;;;;;;5092252;28;20307;-82
2022/01/30 07:31:04;;;;;;;15.80;5.17;;;;;;;;;;5091828;28;20639;-83
2022/01/30 07:33:33;;;;;;;14.73;4.50;;;;;;;;;;5091273;28;20294;-82
2022/01/30 07:36:00;;;;;;;20.00;5.33;;;;;;;;;;5095872;28;20230;-82
2022/01/30 07:38:28;;;;;;;20.83;4.50;;;;;;;;;;5091757;28;20202;-83
2022/01/30 07:40:55;;;;;;;26.07;5.17;;;;;;;;;;5107447;28;20202;-82
2022/01/30 07:43:22;;;;;;;24.07;5.27;;;;;;;;;;5107685;28;20256;-82
2022/01/30 07:45:51;;;;;;;22.97;4.43;;;;;;;;;;5102230;28;20225;-82
2022/01/30 07:48:18;;;;;;;25.13;4.80;;;;;;;;;;5110905;28;20703;-82
2022/01/30 07:50:46;;;;;;;20.53;4.87;;;;;;;;;;5111265;28;20209;-82
2022/01/30 07:53:13;;;;;;;25.73;5.77;;;;;;;;;;5103150;28;20282;-82
2022/01/30 07:55:40;;;;;;;26.67;5.40;;;;;;;;;;5109493;28;20689;-82
2022/01/30 07:58:08;;;;;;;25.53;5.60;;;;;;;;;;5097562;28;20197;-82
2022/01/30 08:00:35;;;;;;;27.43;5.77;;;;;;;;;;5095464;28;20193;-82
2022/01/30 08:03:04;;;;;;;23.40;5.07;;;;;;;;;;5094776;28;20258;-83
2022/01/30 08:05:31;;;;;;;31.30;5.43;;;;;;;;;;5103502;28;20257;-82
2022/01/30 08:07:59;;;;;;;25.87;5.53;;;;;;;;;;5103138;28;20230;-82
2022/01/30 08:10:26;;;;;;;27.27;5.50;;;;;;;;;;5111622;28;20277;-82
2022/01/30 08:12:53;;;;;;;24.90;5.63;;;;;;;;;;5111627;28;20232;-82
2022/01/30 08:15:21;;;;;;;34.90;5.77;;;;;;;;;;5092110;28;20273;-82
2022/01/30 08:17:48;;;;;;;24.87;5.40;;;;;;;;;;5091499;28;20190;-82
2022/01/30 08:20:18;;;;;;;25.27;5.93;;;;;;;;;;5102690;28;20214;-82
2022/01/30 08:23:07;;;;;;;25.40;5.57;;;;;;;;;;5111216;28;20574;-82
2022/01/30 08:25:34;;;;;;;28.33;6.63;;;;;;;;;;5093557;28;20227;-82
2022/01/30 08:28:02;;;;;;;29.63;6.50;;;;;;;;;;5102001;28;20630;-82
2022/01/30 08:30:29;;;;;;;40.40;7.17;;;;;;;;;;5094499;28;20704;-82
2022/01/30 08:32:58;;;;;;;25.50;6.40;;;;;;;;;;5095070;28;20255;-85
2022/01/30 08:35:27;;;;;;;27.97;7.30;;;;;;;;;;5094673;28;20211;-85
2022/01/30 08:37:54;;;;;;;23.67;5.63;;;;;;;;;;5103990;28;20206;-83
2022/01/30 08:40:22;;;;;;;26.77;7.33;;;;;;;;;;5098679;28;20297;-82
2022/01/30 08:42:50;;;;;;;30.00;7.37;;;;;;;;;;5096732;28;20218;-83
2022/01/30 08:45:18;;;;;;;26.47;6.80;;;;;;;;;;5101597;28;20301;-84
2022/01/30 08:47:46;;;;;;;31.93;7.50;;;;;;;;;;5105559;28;20226;-85
2022/01/30 08:50:14;;;;;;;29.90;6.47;;;;;;;;;;5102702;28;20234;-84
2022/01/30 08:52:43;;;;;;;22.93;6.17;;;;;;;;;;5099973;28;20247;-85
2022/01/30 08:55:12;;;;;;;27.50;6.00;;;;;;;;;;5117500;27;20223;-84
2022/01/30 08:57:39;;;;;;;28.53;6.50;;;;;;;;;;5120112;27;20289;-85
2022/01/30 09:00:08;;;;;;;30.07;5.97;;;;;;;;;;5115679;27;20229;-85
2022/01/30 09:02:35;;;;;;;27.90;6.37;;;;;;;;;;5108566;27;20259;-85
2022/01/30 09:05:03;;;;;;;27.97;6.43;;;;;;;;;;5113705;27;20213;-85
2022/01/30 09:07:30;;;;;;;21.27;6.17;;;;;;;;;;5115120;27;20232;-86
2022/01/30 09:09:59;;;;;;;26.10;6.07;;;;;;;;;;5126799;27;20270;-85
2022/01/30 09:12:26;;;;;;;25.80;6.90;;;;;;;;;;5122411;27;20230;-84
2022/01/30 09:14:54;;;;;;;27.23;6.60;;;;;;;;;;5113959;27;20260;-85
2022/01/30 09:17:22;;;;;;;32.17;6.77;;;;;;;;;;5114962;27;20206;-84
2022/01/30 09:19:50;;;;;;;26.53;5.93;;;;;;;;;;5106481;27;20209;-84
2022/01/30 09:22:18;;;;;;;22.70;5.97;;;;;;;;;;5114724;27;20293;-84
2022/01/30 09:24:46;;;;;;;25.17;6.67;;;;;;;;;;5112971;27;20293;-84
2022/01/30 09:27:15;;;;;;;23.43;5.90;;;;;;;;;;5111996;28;20982;-84
2022/01/30 09:29:42;;;;;;;25.90;6.90;;;;;;;;;;5113197;27;20196;-84
2022/01/30 09:32:10;;;;;;;21.23;5.90;;;;;;;;;;5114525;27;20665;-84
2022/01/30 09:34:37;;;;;;;24.30;6.73;;;;;;;;;;5114511;27;20611;-84
2022/01/30 09:37:05;;;;;;;27.60;6.30;;;;;;;;;;5113067;28;20290;-84
2022/01/30 09:39:33;;;;;;;24.97;6.07;;;;;;;;;;5113544;27;20214;-85
2022/01/30 09:42:00;;;;;;;23.80;5.77;;;;;;;;;;5121651;27;20245;-85
2022/01/30 09:44:28;;;;;;;20.73;6.53;;;;;;;;;;5123908;27;20239;-85
2022/01/30 09:46:56;;;;;;;22.33;5.80;;;;;;;;;;5124609;27;20236;-85
2022/01/30 09:49:24;;;;;;;19.23;6.10;;;;;;;;;;5126030;27;20213;-85
2022/01/30 09:51:52;;;;;;;22.03;5.90;;;;;;;;;;5127146;27;20187;-85
2022/01/30 09:54:19;;;;;;;20.40;6.37;;;;;;;;;;5120991;27;20235;-85
2022/01/30 09:56:47;;;;;;;19.40;6.57;;;;;;;;;;5121213;27;20215;-84
2022/01/30 09:59:14;;;;;;;17.83;6.40;;;;;;;;;;5120020;27;20205;-84
2022/01/30 10:01:43;;;;;;;23.50;6.07;;;;;;;;;;5126842;27;20233;-83
2022/01/30 10:04:10;;;;;;;19.70;5.90;;;;;;;;;;5128294;27;20224;-85
2022/01/30 10:07:04;;;;;;;21.43;6.30;;;;;;;;;;5131073;27;20605;-85
2022/01/30 10:09:34;;;;;;;21.87;6.60;;;;;;;;;;5081534;28;20574;-85
2022/01/30 10:12:23;;;;;;;23.07;6.77;;;;;;;;;;5116381;27;20193;-85
2022/01/30 10:14:55;;;;;;;19.83;6.33;;;;;;;;;;5124351;27;20284;-85
2022/01/30 10:17:31;;;;;;;21.43;6.40;;;;;;;;;;5118898;27;20641;-85
2022/01/30 10:20:06;;;;;;;21.00;6.07;;;;;;;;;;5125526;27;20193;-83
2022/01/30 10:22:34;;;;;;;25.50;6.03;;;;;;;;;;5128208;27;20220;-83
2022/01/30 10:25:01;;;;;;;19.93;6.00;;;;;;;;;;5120817;27;20249;-83
2022/01/30 10:27:29;;;;;;;18.70;5.70;;;;;;;;;;5122420;27;21657;-81
2022/01/30 10:30:02;;;;;;;16.67;6.03;;;;;;;;;;5112056;27;20289;-84
2022/01/30 10:32:31;;;;;;;19.80;5.70;;;;;;;;;;5115900;27;20251;-85
2022/01/30 10:35:02;;;;;;;17.17;5.80;;;;;;;;;;5130475;27;20284;-80
2022/01/30 10:37:30;;;;;;;18.97;5.90;;;;;;;;;;5130801;27;20272;-81
2022/01/30 10:40:07;;;;;;;17.50;5.43;;;;;;;;;;5124437;27;20407;-82
2022/01/30 10:42:40;;;;;;;16.60;5.83;;;;;;;;;;5112939;27;20304;-80
2022/01/30 10:45:08;;;;;;;18.87;5.40;;;;;;;;;;5126789;27;20257;-80
2022/01/30 10:47:37;;;;;;;18.50;5.17;;;;;;;;;;5118572;27;20239;-82
2022/01/30 10:50:11;;;;;;;17.90;6.00;;;;;;;;;;5126953;27;20288;-80
2022/01/30 10:52:55;;;;;;;17.47;5.67;;;;;;;;;;5114873;27;20289;-82
2022/01/30 10:55:35;;;;;;;17.10;5.23;;;;;;;;;;5123127;27;20264;-82
2022/01/30 10:58:03;;;;;;;16.57;5.17;;;;;;;;;;5120864;27;20196;-82
2022/01/30 11:00:37;;;;;;;16.40;4.63;;;;;;;;;;5117924;27;20225;-82
2022/01/30 11:03:06;;;;;;;16.30;5.00;;;;;;;;;;5117553;27;20243;-80
2022/01/30 11:05:34;;;;;;;15.63;4.97;;;;;;;;;;5122938;27;20244;-80
2022/01/30 11:08:01;;;;;;;16.70;4.87;;;;;;;;;;5122051;27;20275;-81
2022/01/30 11:10:31;;;;;;;19.03;5.17;;;;;;;;;;5129563;27;20618;-80
2022/01/30 11:13:08;;;;;;;20.73;5.10;;;;;;;;;;5119444;27;20243;-80
2022/01/30 11:15:37;;;;;;;17.50;4.73;;;;;;;;;;5120556;27;20665;-80
2022/01/30 11:18:06;;;;;;;20.00;6.00;;;;;;;;;;5122058;27;20653;-80
2022/01/30 11:20:34;;;;;;;19.17;4.60;;;;;;;;;;5127969;27;20247;-81
2022/01/30 11:23:02;;;;;;;16.87;4.97;;;;;;;;;;5120132;27;20236;-81
2022/01/30 11:25:33;;;;;;;15.27;4.27;;;;;;;;;;5103087;27;20655;-81
2022/01/30 11:28:02;;;;;;;15.23;4.97;;;;;;;;;;5112966;27;20675;-81
2022/01/30 11:30:29;;;;;;;16.83;4.83;;;;;;;;;;5114899;27;20193;-81
2022/01/30 11:32:57;;;;;;;13.83;4.70;;;;;;;;;;5122268;27;20277;-80
2022/01/30 11:35:25;;;;;;;21.73;5.30;;;;;;;;;;5119860;27;20656;-80
2022/01/30 11:37:56;;;;;;;14.33;4.63;;;;;;;;;;5117641;28;20284;-79
2022/01/30 11:40:23;;;;;;;16.87;4.70;;;;;;;;;;5118899;28;20229;-81
2022/01/30 11:42:53;;;;;;;13.17;3.90;;;;;;;;;;5121921;27;20350;-78
2022/01/30 11:45:24;;;;;;;14.35;3.65;;;;;;;;;;5122297;28;20197;-79
2022/01/30 11:47:55;;;;;;;16.92;4.10;;;;;;;;;;5120953;28;20763;-79
2022/01/30 11:50:24;;;;;;;12.20;3.22;;;;;;;;;;5111310;28;20318;-79
2022/01/30 11:52:57;;;;;;;15.20;3.70;;;;;;;;;;5112971;28;20197;-79
2022/01/30 11:55:43;;;;;;;15.90;3.27;;;;;;;;;;5099406;27;20234;-79
2022/01/30 11:58:25;;;;;;;14.63;3.20;;;;;;;;;;5105550;28;20229;-78
2022/01/30 12:00:52;;;;;;;14.30;3.37;;;;;;;;;;5107421;28;20298;-79
2022/01/30 12:03:24;;;;;;;14.23;3.40;;;;;;;;;;5102284;28;20202;-79
2022/01/30 12:05:52;;;;;;;11.00;3.77;;;;;;;;;;5097559;28;20214;-79
2022/01/30 12:08:52;;;;;;;16.83;3.97;;;;;;;;;;5099548;28;20221;-79
2022/01/30 12:11:47;;;;;;;13.93;3.77;;;;;;;;;;5050347;28;20286;-79
2022/01/30 12:14:37;;;;;;;13.43;3.83;;;;;;;;;;5029302;28;20270;-78
2022/01/30 12:17:05;;;;;;;16.90;4.00;;;;;;;;;;5017766;28;20223;-79
2022/01/30 12:19:50;;;;;;;12.07;3.47;;;;;;;;;;5035541;28;20200;-80
2022/01/30 12:22:36;;;;;;;16.53;3.63;;;;;;;;;;5051068;28;20200;-79
2022/01/30 12:25:18;;;;;;;18.30;3.77;;;;;;;;;;5037357;28;20204;-79
2022/01/30 12:27:49;;;;;;;13.80;3.77;;;;;;;;;;5038221;28;20234;-79
2022/01/30 12:30:31;;;;;;;14.50;3.53;;;;;;;;;;5048394;28;20641;-79
2022/01/30 12:33:00;;;;;;;17.57;3.60;;;;;;;;;;5048956;28;20278;-78
2022/01/30 12:35:27;;;;;;;14.80;3.77;;;;;;;;;;5034579;28;20287;-79
2022/01/30 12:37:54;;;;;;;11.47;3.70;;;;;;;;;;5038888;28;20234;-79
2022/01/30 12:40:22;;;;;;;18.27;3.77;;;;;;;;;;5035637;28;20235;-79
2022/01/30 12:42:50;;;;;;;13.70;3.73;;;;;;;;;;5087648;28;20269;-79
2022/01/30 12:45:17;;;;;;;17.20;4.00;;;;;;;;;;5097433;28;20233;-79
2022/01/30 12:47:48;;;;;;;14.80;3.60;;;;;;;;;;5108098;28;20304;-82
2022/01/30 12:50:18;;;;;;;12.90;4.13;;;;;;;;;;5104448;28;20190;-82
2022/01/30 12:52:48;;;;;;;13.80;3.63;;;;;;;;;;5105556;28;20288;-81
2022/01/30 12:55:17;;;;;;;15.10;3.97;;;;;;;;;;5105490;28;20316;-81
2022/01/30 12:57:45;;;;;;;13.50;4.13;;;;;;;;;;5109433;28;20266;-82
2022/01/30 13:00:13;;;;;;;15.30;3.83;;;;;;;;;;5100384;28;20198;-82
2022/01/30 13:02:54;;;;;;;12.37;3.53;;;;;;;;;;5095642;28;20205;-81
2022/01/30 13:05:24;;;;;;;17.20;4.40;;;;;;;;;;5089523;28;20746;-81
2022/01/30 13:07:55;;;;;;;16.00;4.57;;;;;;;;;;5100589;28;20333;-81
2022/01/30 13:10:23;;;;;;;14.77;3.77;;;;;;;;;;5095571;28;20198;-81
2022/01/30 13:12:50;;;;;;;15.53;3.60;;;;;;;;;;5092400;28;20285;-81
2022/01/30 13:15:18;;;;;;;13.13;3.33;;;;;;;;;;5088411;28;20283;-80
2022/01/30 13:17:46;;;;;;;12.80;3.80;;;;;;;;;;5092322;28;20595;-80
2022/01/30 13:20:14;;;;;;;13.33;3.87;;;;;;;;;;5091870;28;20282;-83
2022/01/30 13:22:44;;;;;;;14.87;3.40;;;;;;;;;;5094830;28;20230;-80
2022/01/30 13:25:12;;;;;;;11.90;3.30;;;;;;;;;;5091234;28;20228;-80
2022/01/30 13:27:40;;;;;;;14.57;3.80;;;;;;;;;;5093583;28;20757;-80
2022/01/30 13:30:08;;;;;;;19.13;4.77;;;;;;;;;;5092354;28;20819;-81
2022/01/30 13:32:37;;;;;;;13.57;4.27;;;;;;;;;;5091665;28;20281;-80
2022/01/30 13:35:11;;;;;;;12.07;3.53;;;;;;;;;;5093361;28;20302;-82
2022/01/30 13:37:38;;;;;;;18.47;5.93;;;;;;;;;;5091942;28;20198;-81
2022/01/30 13:40:18;;;;;;;14.00;3.90;;;;;;;;;;5099912;28;20234;-81
2022/01/30 13:42:48;;;;;;;15.83;6.00;;;;;;;;;;5097640;28;20283;-83
2022/01/30 13:48:12;;;;;;;16.63;5.30;;;;;;;;;;5095235;28;20210;-81
2022/01/30 13:50:40;;;;;;;38.47;22.37;;;;;;;;;;5094719;28;20288;-82
2022/01/30 13:53:08;;;;;;;26.73;12.10;;;;;;;;;;5089724;28;20321;-82
2022/01/30 13:55:38;;;;;;;13.50;3.97;;;;;;;;;;5101148;28;20226;-83
2022/01/30 13:58:06;;;;;;;13.43;3.60;;;;;;;;;;5098661;28;20222;-82
2022/01/30 14:00:34;;;;;;;15.77;3.73;;;;;;;;;;5109124;28;20212;-83
2022/01/30 14:03:02;;;;;;;13.73;3.53;;;;;;;;;;5096066;28;20646;-82
2022/01/30 14:05:30;;;;;;;16.53;3.30;;;;;;;;;;5100694;28;20768;-82
2022/01/30 14:07:58;;;;;;;15.93;3.17;;;;;;;;;;5102874;28;20604;-82
2022/01/30 14:10:29;;;;;;;18.17;6.23;;;;;;;;;;5099276;28;20283;-82
2022/01/30 14:13:01;;;;;;;35.77;16.27;;;;;;;;;;5091616;28;20233;-82
2022/01/30 14:15:29;;;;;;;24.77;10.97;;;;;;;;;;5097483;28;20899;-82
2022/01/30 14:18:12;;;;;;;27.87;12.93;;;;;;;;;;5095399;28;20277;-82
2022/01/30 14:20:40;;;;;;;39.97;25.23;;;;;;;;;;5095864;28;20289;-82
2022/01/30 14:23:11;;;;;;;34.67;17.40;;;;;;;;;;5103580;28;20224;-83
2022/01/30 14:25:39;;;;;;;17.70;5.17;;;;;;;;;;5102882;28;20274;-82
2022/01/30 14:28:20;;;;;;;14.63;3.40;;;;;;;;;;5107070;28;20217;-83
2022/01/30 14:30:47;;;;;;;11.77;2.90;;;;;;;;;;5097868;28;20255;-82
2022/01/30 14:33:15;;;;;;;39.67;21.83;;;;;;;;;;5105143;28;20225;-82
2022/01/30 14:35:42;;;;;;;14.80;4.37;;;;;;;;;;5097622;28;20204;-81
2022/01/30 14:38:10;;;;;;;16.90;4.47;;;;;;;;;;5089719;28;20252;-80
2022/01/30 14:40:38;;;;;;;14.43;4.17;;;;;;;;;;5093832;28;20242;-80
2022/01/30 14:43:05;;;;;;;26.10;12.43;;;;;;;;;;5092895;28;20224;-80
2022/01/30 14:45:34;;;;;;;14.17;4.20;;;;;;;;;;5093161;28;20217;-80
2022/01/30 14:48:02;;;;;;;13.77;3.30;;;;;;;;;;5089050;28;20309;-80
2022/01/30 14:50:30;;;;;;;11.57;3.20;;;;;;;;;;5093531;28;20206;-80
2022/01/30 14:52:58;;;;;;;11.03;2.60;;;;;;;;;;5090005;28;20194;-80
2022/01/30 14:55:26;;;;;;;11.97;3.63;;;;;;;;;;5114815;27;20235;-80
2022/01/30 14:57:56;;;;;;;13.37;3.20;;;;;;;;;;5111222;27;20189;-80
2022/01/30 15:00:25;;;;;;;12.27;3.13;;;;;;;;;;5121193;27;20194;-80
2022/01/30 15:02:55;;;;;;;13.10;3.50;;;;;;;;;;5121914;27;20211;-80
2022/01/30 15:05:22;;;;;;;12.80;3.50;;;;;;;;;;5115548;27;20195;-81
2022/01/30 15:07:49;;;;;;;14.00;3.33;;;;;;;;;;5118387;27;20223;-80
2022/01/30 15:10:18;;;;;;;16.40;4.07;;;;;;;;;;5118016;27;20193;-81
2022/01/30 15:12:46;;;;;;;12.90;3.53;;;;;;;;;;5108930;27;20280;-80
2022/01/30 15:15:14;;;;;;;10.43;3.33;;;;;;;;;;5115394;27;20198;-81
2022/01/30 15:17:42;;;;;;;11.17;2.70;;;;;;;;;;5113172;27;20228;-81
2022/01/30 15:20:12;;;;;;;12.00;2.90;;;;;;;;;;5132200;27;20245;-81
2022/01/30 15:22:39;;;;;;;10.80;3.23;;;;;;;;;;5119634;27;20193;-80
2022/01/30 15:25:08;;;;;;;14.30;3.10;;;;;;;;;;5115430;27;20194;-82
2022/01/30 15:27:36;;;;;;;12.83;3.10;;;;;;;;;;5116482;27;20243;-82
2022/01/30 15:30:04;;;;;;;13.60;3.70;;;;;;;;;;5112429;27;20201;-81